createdAt,value
2017-10-13T00:01:17.117Z,5.67
2017-10-13T00:03:45.383Z,7.00
2017-10-13T00:06:14.392Z,7.30
2017-10-13T00:08:42.637Z,6.30
2017-10-13T00:11:11.385Z,6.70
2017-10-13T00:13:39.638Z,7.47
2017-10-13T00:16:07.880Z,6.70
2017-10-13T00:18:36.150Z,6.40
2017-10-13T00:21:04.394Z,6.90
2017-10-13T00:23:32.654Z,6.13
2017-10-13T00:26:00.925Z,6.00
2017-10-13T00:28:29.179Z,6.70
2017-10-13T00:30:57.426Z,6.03
2017-10-13T00:33:25.795Z,6.10
2017-10-13T00:35:54.041Z,7.13
2017-10-13T00:38:22.288Z,6.47
2017-10-13T00:40:51.323Z,6.23
2017-10-13T00:43:19.570Z,6.13
2017-10-13T00:45:47.894Z,5.60
2017-10-13T00:48:16.138Z,6.00
2017-10-13T00:50:44.386Z,6.77
2017-10-13T00:53:13.442Z,6.27
2017-10-13T00:55:42.210Z,6.63
2017-10-13T00:58:10.509Z,6.80
2017-10-13T01:00:39.032Z,7.90
2017-10-13T01:03:08.061Z,8.83
2017-10-13T01:05:36.314Z,6.73
2017-10-13T01:08:04.559Z,6.40
2017-10-13T01:10:32.830Z,5.90
2017-10-13T01:13:01.074Z,6.23
2017-10-13T01:15:29.674Z,6.67
2017-10-13T01:17:58.093Z,6.93
2017-10-13T01:20:27.106Z,6.00
2017-10-13T01:22:55.344Z,5.63
2017-10-13T01:25:23.606Z,5.87
2017-10-13T01:27:52.466Z,5.57
2017-10-13T01:30:20.707Z,6.57
2017-10-13T01:32:49.741Z,6.37
2017-10-13T01:35:17.993Z,6.23
2017-10-13T01:37:46.241Z,7.10
2017-10-13T01:40:14.590Z,6.13
2017-10-13T01:42:42.834Z,5.60
2017-10-13T01:45:11.073Z,5.93
2017-10-13T01:47:39.342Z,6.60
2017-10-13T01:50:07.582Z,6.50
2017-10-13T01:52:35.814Z,7.03
2017-10-13T01:55:04.846Z,6.63
2017-10-13T01:57:33.089Z,6.17
2017-10-13T02:00:01.339Z,5.97
2017-10-13T02:02:30.029Z,6.87
2017-10-13T02:04:58.281Z,6.43
2017-10-13T02:07:26.520Z,6.13
2017-10-13T02:09:54.777Z,6.67
2017-10-13T02:12:23.798Z,7.47
2017-10-13T02:14:52.037Z,7.57
2017-10-13T02:17:20.318Z,6.97
2017-10-13T02:19:48.571Z,7.87
2017-10-13T02:22:16.813Z,6.60
2017-10-13T02:24:45.417Z,6.57
2017-10-13T02:27:13.735Z,6.63
2017-10-13T02:29:42.757Z,7.40
2017-10-13T02:32:11.030Z,7.00
2017-10-13T02:34:39.275Z,7.90
2017-10-13T02:37:07.518Z,7.30
2017-10-13T02:39:35.789Z,7.80
2017-10-13T02:42:04.041Z,7.97
2017-10-13T02:44:32.301Z,7.70
2017-10-13T02:47:02.039Z,7.37
2017-10-13T02:49:30.278Z,7.97
2017-10-13T02:51:59.294Z,9.13
2017-10-13T02:54:27.570Z,8.40
2017-10-13T02:56:55.813Z,9.07
2017-10-13T02:59:24.841Z,8.43
2017-10-13T03:01:53.114Z,8.93
2017-10-13T03:04:21.882Z,7.80
2017-10-13T03:06:50.908Z,8.27
2017-10-13T03:09:19.366Z,8.27
2017-10-13T03:11:47.606Z,8.13
2017-10-13T03:14:15.846Z,8.47
2017-10-13T03:16:44.115Z,9.10
2017-10-13T03:19:12.362Z,9.00
2017-10-13T03:21:41.375Z,9.13
2017-10-13T03:24:09.642Z,8.30
2017-10-13T03:26:37.889Z,10.00
2017-10-13T03:29:06.146Z,10.20
2017-10-13T03:31:34.475Z,9.37
2017-10-13T03:34:02.730Z,9.27
2017-10-13T03:36:30.978Z,9.10
2017-10-13T03:38:59.249Z,10.97
2017-10-13T03:41:27.502Z,11.70
2017-10-13T03:43:55.756Z,11.60
2017-10-13T03:46:24.032Z,10.77
2017-10-13T03:48:52.277Z,10.43
2017-10-13T03:51:20.533Z,11.60
2017-10-13T03:53:49.202Z,10.67
2017-10-13T03:56:17.450Z,11.17
2017-10-13T03:58:45.712Z,11.87
2017-10-13T04:01:13.987Z,10.87
2017-10-13T04:03:43.011Z,11.97
2017-10-13T04:06:11.367Z,11.67
2017-10-13T04:08:40.426Z,11.90
2017-10-13T04:11:08.705Z,13.63
2017-10-13T04:13:36.963Z,11.83
2017-10-13T04:16:05.326Z,11.80
2017-10-13T04:18:33.588Z,11.70
2017-10-13T04:21:01.830Z,12.60
2017-10-13T04:23:30.102Z,12.70
2017-10-13T04:25:58.354Z,12.03
2017-10-13T04:28:26.605Z,11.43
2017-10-13T04:30:56.067Z,11.50
2017-10-13T04:33:25.098Z,11.70
2017-10-13T04:35:53.347Z,11.20
2017-10-13T04:38:22.795Z,12.40
2017-10-13T04:40:51.041Z,12.40
2017-10-13T04:43:19.362Z,13.33
2017-10-13T04:45:47.879Z,12.00
2017-10-13T04:48:16.897Z,10.70
2017-10-13T04:50:45.297Z,10.97
2017-10-13T04:53:13.562Z,11.67
2017-10-13T04:55:41.815Z,12.07
2017-10-13T04:58:10.869Z,12.70
2017-10-13T05:00:39.314Z,12.43
2017-10-13T05:03:07.559Z,12.13
2017-10-13T05:05:35.814Z,13.27
2017-10-13T05:08:04.558Z,12.33
2017-10-13T05:10:32.805Z,12.70
2017-10-13T05:13:01.823Z,12.03
2017-10-13T05:15:30.102Z,12.60
2017-10-13T05:17:58.347Z,15.13
2017-10-13T05:20:27.374Z,13.53
2017-10-13T05:22:56.082Z,13.37
2017-10-13T05:25:24.330Z,14.30
2017-10-13T05:27:52.582Z,15.33
2017-10-13T05:30:20.858Z,13.67
2017-10-13T05:32:49.874Z,14.50
2017-10-13T05:35:18.133Z,15.80
2017-10-13T05:37:47.179Z,14.10
2017-10-13T05:40:15.429Z,13.90
2017-10-13T05:42:43.678Z,13.63
2017-10-13T05:45:13.023Z,13.90
2017-10-13T05:47:41.278Z,15.30
2017-10-13T05:50:09.573Z,14.07
2017-10-13T05:52:37.839Z,13.00
2017-10-13T05:55:06.089Z,14.60
2017-10-13T05:57:35.106Z,13.67
2017-10-13T06:00:03.390Z,15.70
2017-10-13T06:02:31.637Z,14.40
2017-10-13T06:05:00.661Z,13.70
2017-10-13T06:07:29.362Z,13.93
2017-10-13T06:09:57.803Z,14.67
2017-10-13T06:12:26.824Z,14.33
2017-10-13T06:14:55.109Z,14.47
2017-10-13T06:17:23.369Z,15.30
2017-10-13T06:19:51.639Z,14.90
2017-10-13T06:22:19.907Z,13.50
2017-10-13T06:24:48.917Z,13.20
2017-10-13T06:27:17.170Z,13.53
2017-10-13T06:29:46.618Z,12.23
2017-10-13T06:32:14.874Z,13.00
2017-10-13T06:34:43.130Z,13.50
2017-10-13T06:37:11.413Z,11.10
2017-10-13T06:39:40.422Z,10.90
2017-10-13T06:42:08.677Z,10.80
2017-10-13T06:44:37.726Z,12.10
2017-10-13T06:47:05.973Z,10.60
2017-10-13T06:49:34.226Z,12.43
2017-10-13T06:52:02.662Z,11.80
2017-10-13T06:54:30.916Z,12.50
2017-10-13T06:56:59.158Z,9.87
2017-10-13T06:59:28.199Z,11.50
2017-10-13T07:01:56.445Z,9.07
2017-10-13T07:04:24.698Z,9.53
2017-10-13T07:06:53.734Z,8.13
2017-10-13T07:09:21.974Z,8.40
2017-10-13T07:11:51.319Z,8.10
2017-10-13T07:14:19.896Z,7.80
2017-10-13T07:16:48.138Z,8.10
2017-10-13T07:19:16.398Z,7.77
2017-10-13T07:21:44.679Z,9.33
2017-10-13T07:24:13.690Z,9.33
2017-10-13T07:26:42.706Z,8.57
2017-10-13T07:29:10.979Z,8.40
2017-10-13T07:31:39.286Z,8.93
2017-10-13T07:34:07.509Z,8.13
2017-10-13T07:36:36.850Z,9.13
2017-10-13T07:39:05.099Z,8.30
2017-10-13T07:41:33.349Z,8.37
2017-10-13T07:44:01.634Z,8.37
2017-10-13T07:46:30.642Z,8.90
2017-10-13T07:48:58.887Z,8.30
2017-10-13T07:51:27.154Z,9.67
2017-10-13T07:53:55.400Z,9.07
2017-10-13T07:56:23.644Z,7.93
2017-10-13T07:58:51.964Z,7.47
2017-10-13T08:01:20.210Z,8.70
2017-10-13T08:03:48.455Z,7.70
2017-10-13T08:06:16.732Z,7.37
2017-10-13T08:08:45.737Z,7.20
2017-10-13T08:11:14.750Z,7.20
2017-10-13T08:13:43.043Z,6.37
2017-10-13T08:16:11.282Z,6.70
2017-10-13T08:18:39.530Z,6.97
2017-10-13T08:21:07.874Z,6.80
2017-10-13T08:23:36.121Z,7.17
2017-10-13T08:26:04.362Z,6.70
2017-10-13T08:28:32.628Z,7.43
2017-10-13T08:31:00.870Z,6.23
2017-10-13T08:33:29.113Z,7.03
2017-10-13T08:35:58.150Z,6.40
2017-10-13T08:38:26.394Z,6.83
2017-10-13T08:40:54.634Z,6.10
2017-10-13T08:43:23.394Z,7.00
2017-10-13T08:45:51.630Z,6.73
2017-10-13T08:48:19.874Z,6.50
2017-10-13T08:50:48.145Z,6.53
2017-10-13T08:53:16.378Z,5.80
2017-10-13T08:55:44.630Z,6.40
2017-10-13T08:58:13.655Z,6.00
2017-10-13T09:00:41.899Z,5.57
2017-10-13T09:03:10.913Z,5.90
2017-10-13T09:05:39.393Z,5.27
2017-10-13T09:08:07.639Z,5.20
2017-10-13T09:10:35.889Z,4.97
2017-10-13T09:13:04.152Z,4.90
2017-10-13T09:15:32.885Z,4.60
2017-10-13T09:18:01.891Z,4.30
2017-10-13T09:20:30.919Z,4.10
2017-10-13T09:23:04.747Z,4.40
2017-10-13T09:25:33.217Z,3.90
2017-10-13T09:28:01.448Z,4.27
2017-10-13T09:30:30.482Z,3.80
2017-10-13T09:32:58.746Z,3.83
2017-10-13T09:35:26.992Z,3.63
2017-10-13T09:37:55.369Z,3.90
2017-10-13T09:40:23.638Z,3.90
2017-10-13T09:42:51.881Z,3.40
2017-10-13T09:45:20.122Z,3.47
2017-10-13T09:47:48.710Z,3.17
2017-10-13T09:50:16.955Z,3.20
2017-10-13T09:52:45.195Z,2.90
2017-10-13T09:55:13.454Z,2.67
2017-10-13T09:57:41.693Z,3.20
2017-10-13T10:00:09.942Z,3.87
2017-10-13T10:02:38.213Z,3.43
2017-10-13T10:05:06.461Z,3.20
2017-10-13T10:07:35.022Z,3.33
2017-10-13T10:10:03.418Z,3.40
2017-10-13T10:12:31.662Z,2.90
2017-10-13T10:14:59.898Z,3.00
2017-10-13T10:17:28.538Z,3.50
2017-10-13T10:19:56.781Z,3.77
2017-10-13T10:22:25.023Z,3.60
2017-10-13T10:24:53.286Z,3.67
2017-10-13T10:27:21.686Z,3.80
2017-10-13T10:29:49.926Z,3.30
2017-10-13T10:32:18.263Z,4.07
2017-10-13T10:34:46.513Z,3.40
2017-10-13T10:37:14.753Z,3.90
2017-10-13T10:39:43.043Z,3.77
2017-10-13T10:42:11.278Z,3.63
2017-10-13T10:44:40.290Z,3.00
2017-10-13T10:47:08.550Z,3.10
2017-10-13T10:49:36.792Z,2.80
2017-10-13T10:52:05.044Z,3.20
2017-10-13T10:54:33.358Z,2.30
2017-10-13T10:57:01.602Z,2.70
2017-10-13T10:59:29.948Z,3.20
2017-10-13T11:02:01.397Z,3.60
2017-10-13T11:04:30.676Z,3.40
2017-10-13T11:06:59.163Z,2.43
2017-10-13T11:09:27.426Z,3.00
2017-10-13T11:11:55.685Z,3.00
2017-10-13T11:14:23.914Z,2.63
2017-10-13T11:16:52.431Z,2.43
2017-10-13T11:19:23.075Z,2.60
2017-10-13T11:21:51.454Z,3.00
2017-10-13T11:24:20.140Z,3.50
2017-10-13T11:26:48.378Z,3.13
2017-10-13T11:29:16.626Z,3.10
2017-10-13T11:31:45.125Z,3.40
2017-10-13T11:34:14.141Z,2.80
2017-10-13T11:36:42.393Z,2.40
2017-10-13T11:39:10.727Z,3.57
2017-10-13T11:41:38.971Z,2.77
2017-10-13T11:44:07.214Z,3.07
2017-10-13T11:46:35.480Z,2.90
2017-10-13T11:49:03.723Z,2.57
2017-10-13T11:51:31.965Z,2.90
2017-10-13T11:54:00.238Z,2.43
2017-10-13T11:56:28.494Z,2.77
2017-10-13T11:58:56.836Z,3.37
2017-10-13T12:01:25.246Z,3.10
2017-10-13T12:03:54.261Z,2.50
2017-10-13T12:06:22.507Z,2.50
2017-10-13T12:08:50.771Z,2.77
2017-10-13T12:11:19.103Z,3.03
2017-10-13T12:13:47.490Z,2.87
2017-10-13T12:16:15.939Z,3.30
2017-10-13T12:18:45.550Z,2.90
2017-10-13T12:21:14.574Z,3.60
2017-10-13T12:23:42.899Z,3.17
2017-10-13T12:26:11.134Z,3.00
2017-10-13T12:28:39.394Z,3.47
2017-10-13T12:31:07.653Z,3.20
2017-10-13T12:33:35.944Z,3.00
2017-10-13T12:36:04.368Z,2.60
2017-10-13T12:38:32.622Z,3.10
2017-10-13T12:41:00.862Z,3.07
2017-10-13T12:43:29.114Z,2.77
2017-10-13T12:45:57.445Z,2.73
2017-10-13T12:48:25.686Z,5.00
2017-10-13T12:50:53.938Z,3.33
2017-10-13T12:53:22.210Z,2.60
2017-10-13T12:55:50.455Z,2.90
2017-10-13T12:58:19.496Z,3.20
2017-10-13T13:00:47.759Z,2.70
2017-10-13T13:03:16.002Z,2.60
2017-10-13T13:05:44.254Z,2.60
2017-10-13T13:08:12.877Z,2.70
2017-10-13T13:10:41.173Z,2.70
2017-10-13T13:13:10.490Z,3.20
2017-10-13T13:15:39.082Z,3.47
2017-10-13T13:18:07.730Z,3.67
2017-10-13T13:20:35.974Z,3.93
2017-10-13T13:23:04.238Z,4.30
2017-10-13T13:25:32.479Z,3.50
2017-10-13T13:28:00.725Z,3.63
2017-10-13T13:30:29.055Z,3.63
2017-10-13T13:32:57.298Z,3.67
2017-10-13T13:35:25.571Z,3.50
2017-10-13T13:37:53.814Z,2.70
2017-10-13T13:40:22.061Z,2.90
2017-10-13T13:42:51.077Z,2.53
2017-10-13T13:45:19.360Z,2.40
2017-10-13T13:47:47.602Z,2.47
2017-10-13T13:50:15.854Z,2.33
2017-10-13T13:52:44.369Z,2.33
2017-10-13T13:55:12.610Z,2.20
2017-10-13T13:57:40.862Z,2.37
2017-10-13T14:00:09.122Z,2.97
2017-10-13T14:02:37.362Z,2.60
2017-10-13T14:05:05.607Z,2.40
2017-10-13T14:07:33.882Z,1.90
2017-10-13T14:10:02.121Z,2.77
2017-10-13T14:12:30.366Z,2.10
2017-10-13T14:14:58.931Z,2.40
2017-10-13T14:17:27.164Z,2.80
2017-10-13T14:19:55.495Z,2.70
2017-10-13T14:22:23.952Z,2.80
2017-10-13T14:24:53.155Z,3.10
2017-10-13T14:27:21.394Z,2.43
2017-10-13T14:29:49.668Z,2.70
2017-10-13T14:32:17.910Z,2.73
2017-10-13T14:34:46.932Z,2.30
2017-10-13T14:37:15.741Z,2.73
2017-10-13T14:39:43.977Z,2.63
2017-10-13T14:42:12.216Z,2.43
2017-10-13T14:44:40.479Z,2.27
2017-10-13T14:47:08.727Z,2.33
2017-10-13T14:49:36.982Z,2.80
2017-10-13T14:52:06.020Z,3.20
2017-10-13T14:54:34.254Z,2.40
2017-10-13T14:57:02.491Z,3.30
2017-10-13T14:59:30.902Z,2.60
2017-10-13T15:01:59.919Z,2.60
2017-10-13T15:04:28.163Z,2.80
2017-10-13T15:06:56.441Z,3.10
2017-10-13T15:09:24.694Z,3.03
2017-10-13T15:11:52.947Z,2.80
2017-10-13T15:14:21.217Z,2.60
2017-10-13T15:16:49.462Z,2.80
2017-10-13T15:19:18.478Z,3.27
2017-10-13T15:21:46.841Z,3.00
2017-10-13T15:24:15.891Z,2.87
2017-10-13T15:26:44.113Z,3.10
2017-10-13T15:29:19.147Z,2.63
2017-10-13T15:31:54.084Z,3.70
2017-10-13T15:34:28.150Z,3.20
2017-10-13T15:36:56.946Z,2.37
2017-10-13T15:39:31.544Z,2.03
2017-10-13T15:42:06.633Z,2.67
2017-10-13T15:44:39.709Z,2.57
2017-10-13T15:47:14.006Z,2.70
2017-10-13T15:49:48.399Z,2.63
2017-10-13T15:52:23.767Z,2.30
2017-10-13T15:54:54.188Z,2.97
2017-10-13T15:57:24.552Z,3.33
2017-10-13T15:59:53.011Z,3.13
2017-10-13T16:02:21.414Z,2.77
2017-10-13T16:04:50.426Z,2.77
2017-10-13T16:07:18.696Z,3.23
2017-10-13T16:09:47.177Z,3.00
2017-10-13T16:12:17.667Z,4.00
2017-10-13T16:14:46.042Z,3.70
2017-10-13T16:17:14.629Z,3.77
2017-10-13T16:19:42.856Z,3.33
2017-10-13T16:22:11.094Z,3.30
2017-10-13T16:24:39.468Z,3.60
2017-10-13T16:27:07.707Z,3.20
2017-10-13T16:29:35.945Z,3.90
2017-10-13T16:32:04.214Z,3.67
2017-10-13T16:34:32.460Z,3.70
2017-10-13T16:37:00.706Z,3.80
2017-10-13T16:39:29.059Z,3.13
2017-10-13T16:41:58.070Z,4.67
2017-10-13T16:44:26.332Z,3.53
2017-10-13T16:46:55.361Z,3.63
2017-10-13T16:49:23.603Z,4.50
2017-10-13T16:51:52.043Z,4.30
2017-10-13T16:54:20.314Z,3.43
2017-10-13T16:56:49.919Z,4.03
2017-10-13T16:59:18.146Z,5.30
2017-10-13T17:01:46.527Z,3.37
2017-10-13T17:04:14.780Z,3.47
2017-10-13T17:06:43.034Z,4.63
2017-10-13T17:09:11.337Z,4.57
2017-10-13T17:11:39.583Z,3.97
2017-10-13T17:14:07.827Z,3.33
2017-10-13T17:16:36.101Z,3.80
2017-10-13T17:19:04.350Z,4.00
2017-10-13T17:21:33.354Z,4.30
2017-10-13T17:24:01.698Z,3.80
2017-10-13T17:26:29.942Z,4.23
2017-10-13T17:28:58.188Z,4.27
2017-10-13T17:31:26.459Z,5.10
2017-10-13T17:33:55.475Z,5.03
2017-10-13T17:36:23.718Z,4.67
2017-10-13T17:38:53.170Z,4.30
2017-10-13T17:41:21.474Z,4.50
2017-10-13T17:43:49.878Z,4.80
2017-10-13T17:46:19.189Z,4.60
2017-10-13T17:48:48.205Z,4.17
2017-10-13T17:51:16.459Z,5.97
2017-10-13T17:53:44.729Z,4.87
2017-10-13T17:56:13.173Z,5.13
2017-10-13T17:58:41.399Z,4.30
2017-10-13T18:01:09.669Z,4.50
2017-10-13T18:03:37.910Z,5.20
2017-10-13T18:06:06.192Z,5.20
2017-10-13T18:08:34.958Z,4.80
2017-10-13T18:11:04.179Z,6.33
2017-10-13T18:13:32.561Z,5.27
2017-10-13T18:16:00.946Z,4.60
2017-10-13T18:18:29.314Z,4.90
2017-10-13T18:20:57.702Z,4.67
2017-10-13T18:23:26.094Z,6.70
2017-10-13T18:25:55.062Z,7.27
2017-10-13T18:28:23.314Z,6.87
2017-10-13T18:30:51.643Z,6.93
2017-10-13T18:33:19.886Z,7.20
2017-10-13T18:35:48.133Z,6.87
2017-10-13T18:38:16.434Z,7.50
2017-10-13T18:40:44.669Z,8.43
2017-10-13T18:43:13.108Z,6.60
2017-10-13T18:45:41.457Z,6.67
2017-10-13T18:48:09.867Z,7.83
2017-10-13T18:50:39.126Z,13.30
2017-10-13T18:53:12.669Z,7.73
2017-10-13T18:55:40.909Z,6.37
2017-10-13T18:58:10.149Z,6.63
2017-10-13T19:00:38.422Z,7.57
2017-10-13T19:03:06.910Z,12.73
2017-10-13T19:05:35.272Z,6.87
2017-10-13T19:08:03.673Z,6.63
2017-10-13T19:10:36.646Z,6.90
2017-10-13T19:13:05.110Z,6.87
2017-10-13T19:15:33.400Z,7.00
2017-10-13T19:18:01.896Z,7.13
2017-10-13T19:20:30.254Z,6.50
2017-10-13T19:23:00.679Z,7.10
2017-10-13T19:25:29.098Z,10.40
2017-10-13T19:27:58.406Z,14.50
2017-10-13T19:30:26.763Z,10.47
2017-10-13T19:32:55.139Z,10.30
2017-10-13T19:35:24.148Z,7.77
2017-10-13T19:37:53.541Z,6.77
2017-10-13T19:40:22.743Z,7.27
2017-10-13T19:42:51.840Z,7.07
2017-10-13T19:45:20.102Z,6.40
2017-10-13T19:47:48.470Z,6.63
2017-10-13T19:50:16.767Z,7.67
2017-10-13T19:52:45.890Z,7.10
2017-10-13T19:55:14.277Z,6.53
2017-10-13T19:57:42.624Z,6.53
2017-10-13T20:00:10.920Z,7.27
2017-10-13T20:02:39.182Z,7.13
2017-10-13T20:05:09.677Z,6.20
2017-10-13T20:07:37.940Z,6.03
2017-10-13T20:10:06.182Z,6.70
2017-10-13T20:12:35.677Z,6.90
2017-10-13T20:15:04.707Z,8.77
2017-10-13T20:17:32.951Z,6.50
2017-10-13T20:20:01.281Z,7.80
2017-10-13T20:22:30.302Z,7.40
2017-10-13T20:24:58.553Z,8.13
2017-10-13T20:27:26.829Z,7.20
2017-10-13T20:29:55.417Z,7.97
2017-10-13T20:32:23.655Z,7.70
2017-10-13T20:34:51.930Z,6.73
2017-10-13T20:37:21.026Z,5.87
2017-10-13T20:39:49.270Z,5.63
2017-10-13T20:42:18.502Z,6.20
2017-10-13T20:44:46.745Z,6.43
2017-10-13T20:47:15.771Z,6.47
2017-10-13T20:49:44.062Z,5.77
2017-10-13T20:52:13.071Z,6.03
2017-10-13T20:54:41.486Z,5.90
2017-10-13T20:57:09.759Z,5.83
2017-10-13T20:59:38.015Z,6.93
2017-10-13T21:02:06.242Z,6.07
2017-10-13T21:04:34.752Z,6.40
2017-10-13T21:07:02.997Z,6.47
2017-10-13T21:09:31.243Z,6.83
2017-10-13T21:11:59.512Z,6.43
2017-10-13T21:14:27.757Z,6.20
2017-10-13T21:16:56.007Z,6.20
2017-10-13T21:19:24.274Z,6.37
2017-10-13T21:21:52.526Z,7.20
2017-10-13T21:24:20.777Z,6.40
2017-10-13T21:26:49.546Z,7.00
2017-10-13T21:29:17.790Z,6.80
2017-10-13T21:31:46.346Z,6.60
2017-10-13T21:34:14.610Z,6.60
2017-10-13T21:36:42.849Z,7.20
2017-10-13T21:39:11.094Z,7.10
2017-10-13T21:41:40.130Z,8.13
2017-10-13T21:44:08.374Z,6.97
2017-10-13T21:46:36.627Z,11.60
2017-10-13T21:49:05.271Z,7.77
2017-10-13T21:51:33.527Z,7.10
2017-10-13T21:54:01.774Z,6.93
2017-10-13T21:56:30.051Z,6.63
2017-10-13T21:58:59.070Z,6.20
2017-10-13T22:01:27.319Z,6.43
2017-10-13T22:03:56.414Z,5.67
2017-10-13T22:06:25.458Z,6.13
2017-10-13T22:08:53.708Z,5.90
2017-10-13T22:11:22.019Z,6.70
2017-10-13T22:13:50.266Z,6.07
2017-10-13T22:16:20.032Z,6.07
2017-10-13T22:18:48.298Z,6.50
2017-10-13T22:21:16.542Z,6.50
2017-10-13T22:23:44.791Z,6.67
2017-10-13T22:26:13.827Z,6.90
2017-10-13T22:28:42.076Z,7.03
2017-10-13T22:31:10.318Z,5.93
2017-10-13T22:33:39.472Z,6.10
2017-10-13T22:36:07.715Z,8.80
2017-10-13T22:38:35.968Z,6.70
2017-10-13T22:41:04.234Z,7.40
2017-10-13T22:43:32.481Z,6.43
2017-10-13T22:46:00.718Z,6.67
2017-10-13T22:48:28.985Z,7.60
2017-10-13T22:50:57.999Z,6.60
2017-10-13T22:53:26.254Z,8.23
2017-10-13T22:55:54.690Z,6.70
2017-10-13T22:58:22.940Z,6.57
2017-10-13T23:00:51.254Z,7.23
2017-10-13T23:03:19.640Z,6.80
2017-10-13T23:05:47.885Z,6.97
2017-10-13T23:08:16.126Z,6.90
2017-10-13T23:10:44.398Z,7.57
2017-10-13T23:13:13.418Z,6.80
2017-10-13T23:15:41.663Z,7.60
2017-10-13T23:18:10.005Z,6.90
2017-10-13T23:20:38.246Z,7.43
2017-10-13T23:23:06.494Z,8.03
2017-10-13T23:25:34.770Z,7.40
2017-10-13T23:28:03.790Z,8.33
2017-10-13T23:30:32.047Z,8.13
2017-10-13T23:33:01.067Z,6.60
2017-10-13T23:35:29.518Z,7.23
2017-10-13T23:37:58.529Z,7.13
2017-10-13T23:40:27.367Z,7.50
2017-10-13T23:42:55.598Z,7.07
2017-10-13T23:45:23.853Z,7.70
2017-10-13T23:47:52.114Z,8.23
2017-10-13T23:50:20.366Z,7.67
2017-10-13T23:52:48.610Z,8.23
2017-10-13T23:55:16.882Z,9.03
2017-10-13T23:57:45.122Z,8.00
